Time;durP1;ratioP1;P1;durP2;ratioP2;P2;SDS_P1;SDS_P2;PMS_P1;PMS_P2;Temp;Humidity;BMP_temperature;BMP_pressure;BME280_temperature;BME280_humidity;BME280_pressure;Samples;Min_cycle;Max_cycle;Signal;HPM_P1;HPM_P2
2022/09/13 00:02:07;;;;;;;9.95;5.18;;;;;;;;;;5032722;28;20215;-69
2022/09/13 00:04:33;;;;;;;7.72;5.18;;;;;;;;;;5033390;28;20236;-69
2022/09/13 00:06:58;;;;;;;9.10;5.32;;;;;;;;;;5014502;28;20228;-69
2022/09/13 00:09:23;;;;;;;8.73;5.80;;;;;;;;;;5010697;28;20870;-69
2022/09/13 00:11:49;;;;;;;6.10;4.55;;;;;;;;;;5011533;28;20214;-69
2022/09/13 00:14:14;;;;;;;6.63;4.88;;;;;;;;;;5028279;28;20303;-69
2022/09/13 00:16:40;;;;;;;7.43;5.13;;;;;;;;;;5014756;28;20358;-70
2022/09/13 00:19:05;;;;;;;8.23;5.05;;;;;;;;;;4998217;28;20232;-69
2022/09/13 00:21:31;;;;;;;6.05;5.07;;;;;;;;;;4998550;28;20568;-69
2022/09/13 00:23:56;;;;;;;8.20;4.93;;;;;;;;;;4997385;28;20231;-69
2022/09/13 00:26:23;;;;;;;5.70;4.90;;;;;;;;;;5012451;28;20254;-69
2022/09/13 00:28:50;;;;;;;6.30;4.80;;;;;;;;;;4997989;28;20220;-69
2022/09/13 00:31:15;;;;;;;7.80;5.30;;;;;;;;;;5010791;28;20219;-69
2022/09/13 00:33:41;;;;;;;6.82;5.35;;;;;;;;;;5011006;28;20215;-69
2022/09/13 00:36:07;;;;;;;7.75;5.65;;;;;;;;;;5007419;28;20579;-69
2022/09/13 00:38:34;;;;;;;9.25;5.43;;;;;;;;;;5016535;28;20242;-69
2022/09/13 00:41:00;;;;;;;7.55;5.15;;;;;;;;;;5021680;28;20236;-69
2022/09/13 00:43:44;;;;;;;9.07;5.63;;;;;;;;;;5018749;28;20270;-69
2022/09/13 00:46:10;;;;;;;11.18;5.55;;;;;;;;;;5020772;28;20212;-69
2022/09/13 00:48:35;;;;;;;9.45;5.90;;;;;;;;;;5036784;28;20303;-69
2022/09/13 00:51:01;;;;;;;8.07;5.90;;;;;;;;;;5020524;28;20299;-69
2022/09/13 00:53:29;;;;;;;9.60;5.95;;;;;;;;;;4994936;28;20209;-69
2022/09/13 00:55:56;;;;;;;9.10;6.18;;;;;;;;;;4988342;28;20227;-69
2022/09/13 00:58:23;;;;;;;9.48;6.22;;;;;;;;;;5024603;28;20219;-69
2022/09/13 01:00:48;;;;;;;10.77;6.78;;;;;;;;;;5031261;28;20211;-69
2022/09/13 01:03:14;;;;;;;10.48;5.93;;;;;;;;;;5016801;28;20220;-69
2022/09/13 01:05:41;;;;;;;10.18;6.82;;;;;;;;;;5016866;28;20827;-70
2022/09/13 01:08:21;;;;;;;8.43;6.60;;;;;;;;;;5030936;28;20728;-69
2022/09/13 01:10:48;;;;;;;8.15;6.45;;;;;;;;;;5030173;28;20273;-69
2022/09/13 01:13:20;;;;;;;10.88;6.72;;;;;;;;;;5030722;28;20216;-70
2022/09/13 01:15:46;;;;;;;11.13;6.70;;;;;;;;;;5027790;28;20945;-70
2022/09/13 01:18:11;;;;;;;10.00;6.72;;;;;;;;;;4994503;28;20319;-70
2022/09/13 01:20:39;;;;;;;8.30;6.47;;;;;;;;;;5021045;28;20220;-71
2022/09/13 01:23:16;;;;;;;12.85;6.53;;;;;;;;;;4996398;28;20252;-70
2022/09/13 01:25:49;;;;;;;11.75;7.00;;;;;;;;;;5031221;28;20726;-71
2022/09/13 01:28:33;;;;;;;11.30;6.82;;;;;;;;;;5030548;28;20227;-72
2022/09/13 01:31:06;;;;;;;10.60;6.68;;;;;;;;;;5016634;28;20222;-71
2022/09/13 01:33:35;;;;;;;10.48;7.68;;;;;;;;;;5030558;28;20711;-73
2022/09/13 01:36:07;;;;;;;8.82;6.40;;;;;;;;;;5029024;28;20235;-69
2022/09/13 01:38:47;;;;;;;12.02;6.88;;;;;;;;;;5026158;28;20762;-72
2022/09/13 01:41:32;;;;;;;9.23;6.90;;;;;;;;;;5023462;28;20322;-72
2022/09/13 01:44:03;;;;;;;11.48;7.40;;;;;;;;;;5008865;28;20224;-71
2022/09/13 01:46:31;;;;;;;9.95;6.57;;;;;;;;;;5014265;28;20207;-73
2022/09/13 01:48:58;;;;;;;14.52;6.80;;;;;;;;;;5031046;28;20812;-73
2022/09/13 01:51:31;;;;;;;10.02;6.60;;;;;;;;;;5027210;28;20209;-73
2022/09/13 01:53:56;;;;;;;7.97;6.95;;;;;;;;;;5030397;28;20792;-72
2022/09/13 01:56:23;;;;;;;9.77;6.78;;;;;;;;;;5014945;28;20242;-72
2022/09/13 01:58:52;;;;;;;7.90;7.00;;;;;;;;;;5031271;28;20227;-72
2022/09/13 02:01:18;;;;;;;8.63;6.60;;;;;;;;;;5010364;28;20215;-73
2022/09/13 02:03:45;;;;;;;8.27;6.90;;;;;;;;;;5024258;28;20200;-73
2022/09/13 02:06:11;;;;;;;9.55;6.38;;;;;;;;;;5023841;28;20219;-73
2022/09/13 02:08:38;;;;;;;9.55;6.45;;;;;;;;;;5029356;28;20620;-73
2022/09/13 02:11:05;;;;;;;11.45;6.20;;;;;;;;;;5030560;28;20941;-73
2022/09/13 02:13:32;;;;;;;7.63;6.18;;;;;;;;;;5030984;28;20216;-73
2022/09/13 02:15:59;;;;;;;10.43;6.72;;;;;;;;;;5030598;28;20211;-73
2022/09/13 02:18:27;;;;;;;11.98;6.43;;;;;;;;;;5014115;28;20219;-74
2022/09/13 02:20:52;;;;;;;8.82;6.30;;;;;;;;;;5010748;28;20225;-73
2022/09/13 02:23:20;;;;;;;10.90;7.22;;;;;;;;;;4992341;28;20315;-74
2022/09/13 02:25:45;;;;;;;9.18;7.20;;;;;;;;;;5007664;28;20387;-75
2022/09/13 02:28:11;;;;;;;8.52;7.10;;;;;;;;;;5023814;28;21160;-73
2022/09/13 02:30:39;;;;;;;10.18;6.47;;;;;;;;;;5029771;28;20222;-75
2022/09/13 02:33:07;;;;;;;8.25;6.78;;;;;;;;;;5033889;28;20885;-72
2022/09/13 02:35:37;;;;;;;9.52;6.82;;;;;;;;;;5017939;28;20820;-73
2022/09/13 02:38:04;;;;;;;11.10;7.15;;;;;;;;;;5013877;28;20204;-73
2022/09/13 02:40:31;;;;;;;11.20;6.93;;;;;;;;;;5000580;28;20335;-74
2022/09/13 02:42:59;;;;;;;12.23;6.65;;;;;;;;;;5027409;28;20224;-73
2022/09/13 02:45:27;;;;;;;11.38;6.80;;;;;;;;;;4997787;28;20223;-73
2022/09/13 02:47:56;;;;;;;8.25;6.18;;;;;;;;;;5027859;28;20591;-74
2022/09/13 02:50:27;;;;;;;8.57;6.68;;;;;;;;;;5011916;28;20245;-73
2022/09/13 02:52:55;;;;;;;10.07;6.25;;;;;;;;;;4999472;28;20292;-74
2022/09/13 02:55:24;;;;;;;10.20;6.78;;;;;;;;;;5021471;28;20207;-73
2022/09/13 02:57:51;;;;;;;11.27;6.90;;;;;;;;;;5023131;28;20726;-74
2022/09/13 03:00:16;;;;;;;10.40;6.50;;;;;;;;;;5038644;28;20227;-73
2022/09/13 03:02:42;;;;;;;9.32;5.95;;;;;;;;;;5038734;28;20282;-73
2022/09/13 03:05:08;;;;;;;10.65;6.20;;;;;;;;;;5022106;28;20269;-73
2022/09/13 03:07:33;;;;;;;9.95;6.15;;;;;;;;;;5037086;28;20231;-74
2022/09/13 03:10:00;;;;;;;8.88;6.07;;;;;;;;;;5004037;28;20247;-74
2022/09/13 03:12:32;;;;;;;8.07;6.13;;;;;;;;;;5009842;28;20207;-73
2022/09/13 03:15:02;;;;;;;9.63;6.50;;;;;;;;;;5014306;28;20220;-74
2022/09/13 03:17:33;;;;;;;10.38;6.45;;;;;;;;;;5025028;28;20292;-74
2022/09/13 03:20:08;;;;;;;10.57;6.40;;;;;;;;;;5033622;28;20730;-73
2022/09/13 03:22:42;;;;;;;8.13;5.50;;;;;;;;;;5014187;28;20306;-73
2022/09/13 03:25:09;;;;;;;7.63;5.40;;;;;;;;;;5017723;28;20218;-72
2022/09/13 03:27:38;;;;;;;7.22;5.28;;;;;;;;;;5016692;28;20219;-74
2022/09/13 03:30:04;;;;;;;9.90;5.32;;;;;;;;;;5032556;28;20840;-73
2022/09/13 03:32:40;;;;;;;8.68;5.30;;;;;;;;;;5027814;28;20961;-73
2022/09/13 03:35:09;;;;;;;9.93;5.93;;;;;;;;;;5011550;28;20231;-72
2022/09/13 03:37:36;;;;;;;8.07;5.40;;;;;;;;;;5013246;28;20208;-73
2022/09/13 03:40:05;;;;;;;9.65;5.38;;;;;;;;;;5011650;28;20228;-72
2022/09/13 03:42:31;;;;;;;8.60;5.30;;;;;;;;;;5033121;28;20333;-73
2022/09/13 03:44:59;;;;;;;6.95;5.18;;;;;;;;;;5019148;28;20327;-73
2022/09/13 03:47:24;;;;;;;6.85;5.72;;;;;;;;;;5001757;28;20291;-73
2022/09/13 03:49:50;;;;;;;7.75;5.60;;;;;;;;;;5032512;28;20211;-74
2022/09/13 03:52:16;;;;;;;8.35;5.78;;;;;;;;;;5036408;28;20624;-73
2022/09/13 03:54:41;;;;;;;8.02;5.80;;;;;;;;;;5027572;28;20253;-74
2022/09/13 03:57:09;;;;;;;7.97;5.43;;;;;;;;;;5027474;28;20250;-73
2022/09/13 03:59:35;;;;;;;7.90;5.68;;;;;;;;;;5027690;28;20334;-74
2022/09/13 04:02:01;;;;;;;8.18;5.90;;;;;;;;;;5028246;28;20811;-71
2022/09/13 04:04:26;;;;;;;9.60;5.90;;;;;;;;;;5029022;28;20215;-73
2022/09/13 04:06:53;;;;;;;8.45;5.55;;;;;;;;;;5029109;28;20307;-73
2022/09/13 04:09:18;;;;;;;9.70;5.70;;;;;;;;;;5027696;28;20288;-73
2022/09/13 04:11:43;;;;;;;7.82;5.80;;;;;;;;;;5027529;28;20670;-73
2022/09/13 04:14:09;;;;;;;9.15;6.13;;;;;;;;;;5008356;28;20228;-74
2022/09/13 04:16:34;;;;;;;9.45;5.40;;;;;;;;;;4997846;28;20205;-72
2022/09/13 04:19:00;;;;;;;7.80;5.63;;;;;;;;;;5007071;28;20236;-74
2022/09/13 04:21:25;;;;;;;8.73;5.90;;;;;;;;;;4994699;28;20217;-72
2022/09/13 04:23:50;;;;;;;8.05;6.55;;;;;;;;;;4994092;28;20704;-73
2022/09/13 04:26:16;;;;;;;10.30;6.30;;;;;;;;;;4999581;28;20848;-78
2022/09/13 04:28:42;;;;;;;8.73;6.30;;;;;;;;;;5003772;28;20422;-71
2022/09/13 04:31:07;;;;;;;11.90;6.63;;;;;;;;;;4999165;28;20220;-70
2022/09/13 04:33:32;;;;;;;11.30;6.90;;;;;;;;;;4998381;28;20434;-72
2022/09/13 04:35:58;;;;;;;9.65;6.63;;;;;;;;;;4998776;28;20431;-68
2022/09/13 04:38:23;;;;;;;9.70;6.50;;;;;;;;;;4997751;28;20208;-69
2022/09/13 04:40:53;;;;;;;8.60;6.60;;;;;;;;;;5012361;28;20240;-70
2022/09/13 04:43:18;;;;;;;9.32;6.68;;;;;;;;;;4991364;28;20509;-71
2022/09/13 04:45:43;;;;;;;9.13;7.05;;;;;;;;;;4991385;28;20943;-72
2022/09/13 04:48:09;;;;;;;9.57;7.20;;;;;;;;;;5006035;28;20209;-74
2022/09/13 04:50:34;;;;;;;10.40;7.45;;;;;;;;;;4997454;28;20531;-76
2022/09/13 04:53:01;;;;;;;9.32;6.65;;;;;;;;;;4997315;28;20204;-69
2022/09/13 04:55:27;;;;;;;8.77;6.60;;;;;;;;;;4997012;28;20216;-69
2022/09/13 04:57:53;;;;;;;10.93;6.72;;;;;;;;;;4998209;28;20266;-71
2022/09/13 05:00:18;;;;;;;9.52;6.55;;;;;;;;;;4997275;28;20282;-71
2022/09/13 05:02:43;;;;;;;9.95;5.65;;;;;;;;;;4999634;28;20228;-73
2022/09/13 05:05:09;;;;;;;9.30;6.13;;;;;;;;;;4993465;28;20247;-73
2022/09/13 05:07:34;;;;;;;9.93;6.30;;;;;;;;;;4991864;28;20278;-75
2022/09/13 05:09:59;;;;;;;11.43;6.45;;;;;;;;;;4990852;28;20286;-78
2022/09/13 05:12:24;;;;;;;8.88;6.18;;;;;;;;;;5013607;28;20248;-74
2022/09/13 05:14:50;;;;;;;8.63;6.50;;;;;;;;;;5028659;28;20263;-75
2022/09/13 05:17:15;;;;;;;9.75;6.65;;;;;;;;;;5023262;28;20671;-72
2022/09/13 05:19:40;;;;;;;9.18;7.10;;;;;;;;;;5029929;28;20224;-71
2022/09/13 05:22:06;;;;;;;10.48;7.15;;;;;;;;;;5029798;28;20266;-71
2022/09/13 05:24:32;;;;;;;13.07;7.90;;;;;;;;;;5020522;28;20207;-70
2022/09/13 05:26:57;;;;;;;12.05;7.38;;;;;;;;;;5026030;28;20668;-70
2022/09/13 05:29:22;;;;;;;10.68;8.23;;;;;;;;;;5029883;28;20212;-73
2022/09/13 05:31:48;;;;;;;10.02;6.50;;;;;;;;;;5029329;28;20679;-73
2022/09/13 05:34:14;;;;;;;7.70;6.03;;;;;;;;;;5028606;28;20745;-74
2022/09/13 05:36:39;;;;;;;10.95;6.05;;;;;;;;;;5029124;28;20231;-70
2022/09/13 05:39:05;;;;;;;8.55;5.68;;;;;;;;;;5030266;28;20293;-69
2022/09/13 05:41:30;;;;;;;8.30;6.20;;;;;;;;;;5028596;28;20308;-68
2022/09/13 05:43:56;;;;;;;9.85;6.75;;;;;;;;;;5024155;28;20208;-69
2022/09/13 05:46:21;;;;;;;8.85;7.15;;;;;;;;;;5009739;28;20220;-69
2022/09/13 05:48:47;;;;;;;9.88;6.50;;;;;;;;;;5010913;28;20667;-70
2022/09/13 05:51:14;;;;;;;13.10;6.95;;;;;;;;;;5014609;28;20762;-68
2022/09/13 05:53:40;;;;;;;10.10;6.95;;;;;;;;;;5048609;28;20743;-69
2022/09/13 05:56:07;;;;;;;11.68;6.88;;;;;;;;;;5048567;28;20207;-68
2022/09/13 05:58:34;;;;;;;9.38;7.15;;;;;;;;;;5048852;28;20207;-70
2022/09/13 06:00:59;;;;;;;10.30;7.10;;;;;;;;;;5048291;28;20218;-70
2022/09/13 06:03:24;;;;;;;9.40;6.38;;;;;;;;;;5048500;28;20215;-69
2022/09/13 06:05:53;;;;;;;10.10;7.18;;;;;;;;;;5049295;28;20207;-69
2022/09/13 06:08:18;;;;;;;11.68;7.40;;;;;;;;;;5049289;28;20211;-70
2022/09/13 06:10:52;;;;;;;12.07;8.10;;;;;;;;;;5050225;28;20727;-69
2022/09/13 06:13:18;;;;;;;14.05;9.60;;;;;;;;;;5048510;28;20589;-69
2022/09/13 06:15:43;;;;;;;13.98;9.98;;;;;;;;;;5045878;28;20260;-70
2022/09/13 06:18:08;;;;;;;15.77;11.13;;;;;;;;;;4995015;28;20219;-69
2022/09/13 06:20:34;;;;;;;13.32;11.20;;;;;;;;;;5014711;28;20259;-69
2022/09/13 06:22:59;;;;;;;14.77;11.45;;;;;;;;;;5015261;28;20208;-70
2022/09/13 06:25:24;;;;;;;16.25;11.68;;;;;;;;;;5007078;28;20210;-69
2022/09/13 06:27:49;;;;;;;15.48;10.48;;;;;;;;;;5006163;28;20213;-70
2022/09/13 06:30:15;;;;;;;13.57;10.55;;;;;;;;;;5006029;28;20216;-68
2022/09/13 06:32:40;;;;;;;14.00;10.00;;;;;;;;;;5006272;28;20204;-69
2022/09/13 06:35:06;;;;;;;15.13;11.18;;;;;;;;;;5006183;28;20743;-68
2022/09/13 06:37:31;;;;;;;13.40;11.25;;;;;;;;;;5021002;28;20239;-70
2022/09/13 06:39:56;;;;;;;17.92;12.20;;;;;;;;;;5026732;28;20933;-70
2022/09/13 06:42:21;;;;;;;19.17;11.63;;;;;;;;;;5026160;28;20281;-70
2022/09/13 06:44:47;;;;;;;17.42;13.23;;;;;;;;;;5026291;28;20250;-70
2022/09/13 06:47:12;;;;;;;17.90;12.93;;;;;;;;;;5016529;28;20275;-70
2022/09/13 06:49:38;;;;;;;18.38;12.80;;;;;;;;;;5006262;28;20204;-70
2022/09/13 06:52:03;;;;;;;16.55;13.07;;;;;;;;;;5024764;28;20211;-69
2022/09/13 06:54:29;;;;;;;16.40;12.43;;;;;;;;;;5046202;28;20234;-69
2022/09/13 06:56:54;;;;;;;19.40;14.02;;;;;;;;;;5034640;28;20675;-70
2022/09/13 06:59:19;;;;;;;19.30;14.57;;;;;;;;;;5023514;28;20249;-69
2022/09/13 07:01:45;;;;;;;16.60;13.57;;;;;;;;;;5025247;28;20531;-70
2022/09/13 07:04:11;;;;;;;19.08;13.55;;;;;;;;;;5024884;28;20204;-71
2022/09/13 07:06:38;;;;;;;19.17;13.98;;;;;;;;;;5025084;28;20316;-70
2022/09/13 07:09:04;;;;;;;20.20;14.68;;;;;;;;;;5022806;28;20311;-69
2022/09/13 07:11:31;;;;;;;20.40;15.38;;;;;;;;;;5024452;28;20225;-70
2022/09/13 07:13:56;;;;;;;19.20;14.68;;;;;;;;;;5021824;28;20590;-70
2022/09/13 07:16:23;;;;;;;20.98;15.38;;;;;;;;;;5021271;28;20216;-70
2022/09/13 07:18:50;;;;;;;19.55;15.65;;;;;;;;;;5028976;28;20215;-70
2022/09/13 07:21:17;;;;;;;19.75;14.40;;;;;;;;;;5027956;28;20211;-71
2022/09/13 07:23:42;;;;;;;19.73;14.75;;;;;;;;;;5029241;28;20664;-69
2022/09/13 07:26:08;;;;;;;18.52;15.20;;;;;;;;;;5027902;28;20200;-68
2022/09/13 07:28:34;;;;;;;23.80;14.73;;;;;;;;;;5022533;28;20204;-66
2022/09/13 07:31:19;;;;;;;21.83;14.40;;;;;;;;;;5016276;28;20267;-67
2022/09/13 07:33:44;;;;;;;20.63;14.23;;;;;;;;;;5009002;28;20286;-67
2022/09/13 07:36:10;;;;;;;19.80;14.38;;;;;;;;;;5011720;28;20595;-66
2022/09/13 07:38:36;;;;;;;21.45;15.15;;;;;;;;;;5027654;28;20247;-66
2022/09/13 07:41:04;;;;;;;21.42;14.50;;;;;;;;;;5028107;28;20632;-67
2022/09/13 07:43:29;;;;;;;20.90;14.73;;;;;;;;;;5011373;28;20731;-67
2022/09/13 07:45:58;;;;;;;17.48;13.48;;;;;;;;;;5028356;28;20254;-67
2022/09/13 07:48:23;;;;;;;17.40;12.43;;;;;;;;;;5024820;28;20461;-67
2022/09/13 07:50:55;;;;;;;16.98;12.20;;;;;;;;;;5028174;28;20211;-67
2022/09/13 07:53:21;;;;;;;17.17;12.13;;;;;;;;;;5028513;28;20204;-68
2022/09/13 07:55:46;;;;;;;17.80;12.43;;;;;;;;;;5029444;28;20591;-66
2022/09/13 07:58:12;;;;;;;17.95;11.80;;;;;;;;;;5027471;28;20561;-69
2022/09/13 08:00:37;;;;;;;16.98;12.75;;;;;;;;;;5028576;28;20235;-68
2022/09/13 08:03:03;;;;;;;16.02;11.65;;;;;;;;;;5027488;28;20265;-67
2022/09/13 08:05:28;;;;;;;15.73;11.68;;;;;;;;;;5029800;28;20262;-67
2022/09/13 08:07:53;;;;;;;17.52;11.18;;;;;;;;;;5028321;28;20541;-72
2022/09/13 08:10:19;;;;;;;15.73;10.10;;;;;;;;;;5028713;28;20575;-69
2022/09/13 08:12:44;;;;;;;15.55;10.55;;;;;;;;;;5028780;28;20218;-68
2022/09/13 08:15:09;;;;;;;14.32;9.65;;;;;;;;;;5026685;28;20207;-68
2022/09/13 08:17:35;;;;;;;15.07;9.98;;;;;;;;;;5027725;28;20203;-70
2022/09/13 08:20:00;;;;;;;14.05;8.98;;;;;;;;;;5028041;28;20260;-69
2022/09/13 08:22:25;;;;;;;12.63;9.57;;;;;;;;;;5027633;28;20576;-69
2022/09/13 08:24:51;;;;;;;13.52;8.77;;;;;;;;;;5028549;28;20207;-70
2022/09/13 08:27:16;;;;;;;16.33;10.20;;;;;;;;;;5025756;28;20658;-69
2022/09/13 08:29:41;;;;;;;16.15;9.18;;;;;;;;;;5027939;28;20234;-69
2022/09/13 08:32:07;;;;;;;14.85;10.60;;;;;;;;;;5028743;28;20208;-69
2022/09/13 08:34:32;;;;;;;18.52;11.55;;;;;;;;;;5021721;28;20738;-69
2022/09/13 08:36:57;;;;;;;16.80;10.52;;;;;;;;;;5019412;28;20895;-69
2022/09/13 08:39:22;;;;;;;17.02;11.60;;;;;;;;;;5015801;28;20316;-69
2022/09/13 08:41:58;;;;;;;18.30;12.10;;;;;;;;;;5024639;28;20220;-69
2022/09/13 08:44:27;;;;;;;21.60;13.63;;;;;;;;;;5006863;28;20212;-70
2022/09/13 08:47:04;;;;;;;17.20;11.35;;;;;;;;;;5015586;28;20207;-69
2022/09/13 08:49:31;;;;;;;18.58;11.35;;;;;;;;;;5021154;28;20786;-70
2022/09/13 08:52:22;;;;;;;15.07;10.13;;;;;;;;;;5028353;28;20216;-69
2022/09/13 08:54:48;;;;;;;13.27;7.28;;;;;;;;;;5027700;28;20211;-70
2022/09/13 08:57:46;;;;;;;11.23;7.35;;;;;;;;;;5023624;28;20563;-68
2022/09/13 09:00:11;;;;;;;10.82;6.25;;;;;;;;;;4995682;28;20587;-68
2022/09/13 09:02:53;;;;;;;10.10;6.13;;;;;;;;;;5008731;28;20295;-69
2022/09/13 09:05:19;;;;;;;10.65;6.65;;;;;;;;;;5008180;28;20231;-69
2022/09/13 09:07:46;;;;;;;11.45;5.72;;;;;;;;;;5007161;28;20208;-69
2022/09/13 09:10:21;;;;;;;8.73;5.93;;;;;;;;;;5008346;28;20283;-69
2022/09/13 09:12:54;;;;;;;7.35;5.18;;;;;;;;;;5008839;28;20290;-69
2022/09/13 09:15:25;;;;;;;10.40;5.80;;;;;;;;;;5006414;28;20201;-69
2022/09/13 09:18:02;;;;;;;8.20;4.82;;;;;;;;;;5019767;28;20211;-69
2022/09/13 09:20:53;;;;;;;8.77;5.25;;;;;;;;;;5027525;28;20227;-69
2022/09/13 09:23:19;;;;;;;7.13;4.95;;;;;;;;;;5021530;28;20199;-69
2022/09/13 09:25:45;;;;;;;8.15;5.57;;;;;;;;;;5030808;28;20331;-68
2022/09/13 09:28:14;;;;;;;7.95;5.05;;;;;;;;;;5048163;28;20287;-68
2022/09/13 09:30:55;;;;;;;8.60;4.55;;;;;;;;;;5046608;28;20282;-68
2022/09/13 09:33:23;;;;;;;9.13;4.22;;;;;;;;;;5047193;28;20249;-70
2022/09/13 09:35:51;;;;;;;7.05;3.25;;;;;;;;;;5046140;28;20308;-68
2022/09/13 09:38:34;;;;;;;6.30;3.40;;;;;;;;;;5045972;28;20767;-69
2022/09/13 09:41:02;;;;;;;6.28;3.80;;;;;;;;;;5047659;28;20239;-69
2022/09/13 09:43:29;;;;;;;6.32;3.70;;;;;;;;;;5045886;28;20207;-69
2022/09/13 09:45:55;;;;;;;6.03;3.42;;;;;;;;;;5045351;28;20436;-71
2022/09/13 09:48:21;;;;;;;5.95;3.10;;;;;;;;;;5018098;28;20286;-72
2022/09/13 09:50:48;;;;;;;5.32;3.28;;;;;;;;;;5009804;28;20580;-68
2022/09/13 09:53:14;;;;;;;7.45;3.28;;;;;;;;;;5046776;28;20215;-75
2022/09/13 09:55:44;;;;;;;5.95;3.10;;;;;;;;;;5049929;28;20298;-74
2022/09/13 09:58:11;;;;;;;6.63;3.25;;;;;;;;;;5035908;28;20242;-74
2022/09/13 10:00:38;;;;;;;6.50;2.75;;;;;;;;;;5019151;28;20816;-74
2022/09/13 10:03:06;;;;;;;5.25;2.90;;;;;;;;;;5024581;28;20219;-74
2022/09/13 10:05:31;;;;;;;4.55;2.78;;;;;;;;;;5008690;28;20285;-74
2022/09/13 10:08:02;;;;;;;7.22;3.17;;;;;;;;;;5005811;28;20675;-74
2022/09/13 10:10:32;;;;;;;4.75;3.00;;;;;;;;;;5006198;28;20258;-74
2022/09/13 10:12:58;;;;;;;5.72;2.78;;;;;;;;;;5014915;28;20682;-74
2022/09/13 10:15:25;;;;;;;7.35;3.10;;;;;;;;;;5025605;28;20208;-73
2022/09/13 10:18:05;;;;;;;5.75;3.17;;;;;;;;;;5020343;28;20544;-72
2022/09/13 10:20:30;;;;;;;5.18;2.92;;;;;;;;;;5008640;28;20219;-72
2022/09/13 10:23:14;;;;;;;5.65;2.90;;;;;;;;;;5011243;28;20212;-72
2022/09/13 10:25:39;;;;;;;5.50;3.20;;;;;;;;;;5027970;28;20231;-71
2022/09/13 10:28:06;;;;;;;5.88;3.10;;;;;;;;;;5036268;28;20240;-71
2022/09/13 10:30:35;;;;;;;7.15;2.80;;;;;;;;;;5006314;28;20208;-75
2022/09/13 10:33:01;;;;;;;4.00;2.42;;;;;;;;;;5007000;28;20308;-74
2022/09/13 10:35:26;;;;;;;4.30;2.25;;;;;;;;;;5005890;28;20216;-75
2022/09/13 10:37:52;;;;;;;6.70;2.70;;;;;;;;;;5008274;28;20254;-75
2022/09/13 10:40:22;;;;;;;5.35;2.17;;;;;;;;;;5019904;28;20227;-76
2022/09/13 10:42:56;;;;;;;3.72;2.05;;;;;;;;;;5025490;28;20200;-76
2022/09/13 10:45:22;;;;;;;3.33;2.05;;;;;;;;;;5025236;28;20208;-75
2022/09/13 10:47:48;;;;;;;4.53;2.22;;;;;;;;;;5026759;28;20212;-75
2022/09/13 10:50:18;;;;;;;3.65;1.60;;;;;;;;;;5026303;28;20203;-76
2022/09/13 10:52:44;;;;;;;4.78;1.88;;;;;;;;;;5029020;28;20203;-73
2022/09/13 10:55:18;;;;;;;5.72;1.55;;;;;;;;;;5012963;28;20574;-74
2022/09/13 10:57:47;;;;;;;4.13;1.30;;;;;;;;;;5018866;28;20557;-74
2022/09/13 11:00:13;;;;;;;3.40;1.40;;;;;;;;;;5028677;28;20258;-76
2022/09/13 11:02:55;;;;;;;5.97;1.40;;;;;;;;;;5029343;28;20196;-75
2022/09/13 11:05:23;;;;;;;5.00;2.20;;;;;;;;;;5028886;28;20454;-74
2022/09/13 11:07:58;;;;;;;3.83;2.30;;;;;;;;;;5028498;28;20220;-73
2022/09/13 11:10:32;;;;;;;5.70;2.20;;;;;;;;;;5028426;28;20290;-73
2022/09/13 11:13:01;;;;;;;6.30;2.13;;;;;;;;;;5021819;28;20770;-73
2022/09/13 11:15:30;;;;;;;6.10;1.98;;;;;;;;;;5019492;28;20216;-74
2022/09/13 11:17:59;;;;;;;5.88;2.10;;;;;;;;;;5018057;28;20216;-73
2022/09/13 11:20:28;;;;;;;2.90;1.80;;;;;;;;;;5009529;28;20235;-74
2022/09/13 11:22:59;;;;;;;3.67;1.92;;;;;;;;;;5009431;28;20208;-75
2022/09/13 11:25:24;;;;;;;2.47;1.40;;;;;;;;;;5009824;28;20279;-81
2022/09/13 11:28:04;;;;;;;3.10;1.45;;;;;;;;;;5050338;28;20302;-77
2022/09/13 11:30:30;;;;;;;3.88;1.23;;;;;;;;;;5049634;28;20211;-76
2022/09/13 11:32:56;;;;;;;4.07;1.20;;;;;;;;;;5048700;28;20218;-76
2022/09/13 11:35:40;;;;;;;2.20;1.20;;;;;;;;;;5050085;28;20203;-75
2022/09/13 11:38:19;;;;;;;2.63;1.00;;;;;;;;;;5049219;28;20249;-74
2022/09/13 11:40:48;;;;;;;5.45;1.20;;;;;;;;;;5048671;28;20218;-75
2022/09/13 11:43:17;;;;;;;2.55;1.00;;;;;;;;;;5048577;28;20215;-75
2022/09/13 11:45:46;;;;;;;2.25;1.10;;;;;;;;;;5049680;28;20210;-76
2022/09/13 11:48:19;;;;;;;2.35;1.10;;;;;;;;;;5032125;28;20393;-71
2022/09/13 11:50:57;;;;;;;3.35;1.00;;;;;;;;;;5048731;28;20369;-75
2022/09/13 11:53:23;;;;;;;2.83;0.80;;;;;;;;;;5009125;28;20204;-74
2022/09/13 11:55:53;;;;;;;1.92;0.60;;;;;;;;;;5010359;28;20216;-73
2022/09/13 11:58:21;;;;;;;3.10;0.70;;;;;;;;;;5022752;28;20234;-75
2022/09/13 12:00:49;;;;;;;1.38;0.70;;;;;;;;;;5027602;28;20219;-74
2022/09/13 12:03:17;;;;;;;1.70;0.80;;;;;;;;;;5026409;28;20212;-73
2022/09/13 12:05:45;;;;;;;2.13;0.70;;;;;;;;;;5015885;28;20212;-74
2022/09/13 12:08:12;;;;;;;2.72;0.70;;;;;;;;;;5008512;28;20228;-74
2022/09/13 12:10:41;;;;;;;2.08;0.70;;;;;;;;;;5010516;28;20215;-74
2022/09/13 12:13:06;;;;;;;1.17;0.68;;;;;;;;;;5024066;28;20277;-74
2022/09/13 12:15:32;;;;;;;1.73;0.60;;;;;;;;;;5019954;28;20329;-75
2022/09/13 12:17:59;;;;;;;2.58;0.60;;;;;;;;;;5022939;28;20346;-72
2022/09/13 12:20:30;;;;;;;2.45;0.80;;;;;;;;;;5027607;28;20216;-73
2022/09/13 12:22:57;;;;;;;1.67;0.60;;;;;;;;;;5028434;28;20223;-72
2022/09/13 12:25:23;;;;;;;2.60;0.70;;;;;;;;;;5029130;28;20285;-72
2022/09/13 12:27:55;;;;;;;2.95;0.80;;;;;;;;;;5007656;28;20258;-75
2022/09/13 12:30:24;;;;;;;2.33;0.80;;;;;;;;;;5027003;28;20216;-74
2022/09/13 12:32:50;;;;;;;2.75;0.63;;;;;;;;;;5027738;28;20220;-73
2022/09/13 12:35:27;;;;;;;1.45;0.70;;;;;;;;;;5009988;28;20216;-71
2022/09/13 12:37:52;;;;;;;2.65;0.63;;;;;;;;;;5012752;28;20555;-78
2022/09/13 12:40:26;;;;;;;2.17;0.60;;;;;;;;;;5008354;28;20224;-78
2022/09/13 12:42:55;;;;;;;2.65;0.68;;;;;;;;;;5007204;28;20203;-80
2022/09/13 12:45:30;;;;;;;3.08;0.70;;;;;;;;;;5007670;28;20437;-80
2022/09/13 12:47:59;;;;;;;0.80;0.50;;;;;;;;;;5009032;28;20240;-79
2022/09/13 12:50:28;;;;;;;2.38;0.63;;;;;;;;;;5008155;28;20213;-79
2022/09/13 12:52:55;;;;;;;2.78;0.80;;;;;;;;;;5039563;28;20218;-77
2022/09/13 12:55:25;;;;;;;1.55;0.70;;;;;;;;;;5047887;28;20226;-77
2022/09/13 12:57:53;;;;;;;1.40;0.50;;;;;;;;;;5037661;28;20208;-76
2022/09/13 13:00:29;;;;;;;1.95;0.80;;;;;;;;;;5026840;28;20228;-75
2022/09/13 13:03:00;;;;;;;2.05;0.80;;;;;;;;;;5026867;28;20207;-78
2022/09/13 13:05:28;;;;;;;2.42;0.60;;;;;;;;;;5026934;28;20216;-75
2022/09/13 13:07:55;;;;;;;2.20;0.68;;;;;;;;;;5026945;28;20203;-75
2022/09/13 13:10:25;;;;;;;1.85;0.70;;;;;;;;;;5025998;28;20262;-76
2022/09/13 13:12:51;;;;;;;3.08;0.90;;;;;;;;;;5028358;28;20208;-75
2022/09/13 13:15:16;;;;;;;2.90;0.73;;;;;;;;;;5025770;28;20216;-75
2022/09/13 13:17:44;;;;;;;2.45;0.73;;;;;;;;;;5027907;28;20223;-75
2022/09/13 13:20:28;;;;;;;1.98;0.70;;;;;;;;;;5026657;28;20251;-75
2022/09/13 13:23:01;;;;;;;4.72;0.70;;;;;;;;;;5028231;28;20215;-79
2022/09/13 13:25:29;;;;;;;2.25;0.73;;;;;;;;;;5026356;28;20659;-80
2022/09/13 13:27:54;;;;;;;3.35;1.05;;;;;;;;;;5026736;28;20702;-75
2022/09/13 13:30:41;;;;;;;2.08;0.60;;;;;;;;;;5010081;28;20215;-74
2022/09/13 13:33:14;;;;;;;1.83;0.50;;;;;;;;;;5028179;28;20211;-75
2022/09/13 13:35:40;;;;;;;2.10;0.60;;;;;;;;;;5026516;28;20299;-76
2022/09/13 13:38:16;;;;;;;2.30;0.30;;;;;;;;;;5025651;28;20298;-75
2022/09/13 13:40:41;;;;;;;1.80;0.65;;;;;;;;;;5027105;28;20238;-78
2022/09/13 13:43:16;;;;;;;1.55;0.60;;;;;;;;;;5026104;28;20212;-76
2022/09/13 13:45:54;;;;;;;1.70;0.40;;;;;;;;;;5026937;28;20310;-76
2022/09/13 13:48:32;;;;;;;1.10;0.40;;;;;;;;;;5026794;28;20660;-76
2022/09/13 13:51:11;;;;;;;1.35;0.45;;;;;;;;;;5026503;28;20232;-76
2022/09/13 13:53:36;;;;;;;3.13;0.55;;;;;;;;;;5046840;28;20221;-77
2022/09/13 13:56:07;;;;;;;1.15;0.50;;;;;;;;;;5028799;28;20218;-76
2022/09/13 13:58:41;;;;;;;1.98;0.50;;;;;;;;;;5012503;28;20584;-76
2022/09/13 14:01:10;;;;;;;4.82;0.70;;;;;;;;;;5026349;28;20710;-75
2022/09/13 14:03:40;;;;;;;3.45;0.60;;;;;;;;;;5025998;28;20231;-76
2022/09/13 14:06:09;;;;;;;2.95;0.73;;;;;;;;;;5025364;28;20215;-75
2022/09/13 14:08:50;;;;;;;3.28;0.77;;;;;;;;;;5028212;28;20251;-79
2022/09/13 14:11:24;;;;;;;1.90;0.65;;;;;;;;;;5025705;28;20258;-76
2022/09/13 14:14:08;;;;;;;3.33;0.70;;;;;;;;;;5025748;28;20453;-77
2022/09/13 14:16:35;;;;;;;1.30;0.40;;;;;;;;;;5027254;28;20314;-77
2022/09/13 14:19:06;;;;;;;2.53;0.70;;;;;;;;;;5028765;28;20695;-75
2022/09/13 14:21:31;;;;;;;2.40;0.60;;;;;;;;;;5029428;28;20212;-76
2022/09/13 14:24:07;;;;;;;1.73;0.60;;;;;;;;;;5030650;28;20668;-78
2022/09/13 14:26:32;;;;;;;2.20;0.80;;;;;;;;;;5029002;28;20199;-77
2022/09/13 14:28:57;;;;;;;1.60;0.60;;;;;;;;;;5029298;28;20583;-76
2022/09/13 14:31:23;;;;;;;3.58;0.68;;;;;;;;;;5030836;28;20207;-78
2022/09/13 14:33:48;;;;;;;2.42;0.60;;;;;;;;;;5030287;28;20214;-77
2022/09/13 14:36:15;;;;;;;3.10;0.60;;;;;;;;;;5029190;28;20216;-78
2022/09/13 14:38:46;;;;;;;4.57;0.80;;;;;;;;;;5029233;28;20216;-76
2022/09/13 14:41:13;;;;;;;1.75;0.43;;;;;;;;;;5029992;28;20239;-77
2022/09/13 14:43:39;;;;;;;2.60;0.52;;;;;;;;;;5030945;28;20215;-77